Darius — LYII — position and weather

sailwx.info

Track history (hours):
 
Tides and Currents Weather Stations Pressure Air Temp Water Temp Dewpoint Dewpoint Depression Visibility Wind Speed Wind Dir Waves Ship Positions

Oceanographic research ship Darius (Lithuania)

Detailed information on ship capabilities available from University of Delaware's Ocean Information Center.

Last reported at 2017-Aug-11 06:59 UTC. Time now 2017-Oct-19 16:36 UTC.
Position N 55°35' E 021°05'.
Warning: this ship's position is months out of date.

Length 23 m.

Type: Fishing. MMSI: 277176000.

Date/timePositionNaut miles runAvg speedWind from/ knotsBaromVisibWave heightAir tempDewpointWater temp
2017-Aug-11 06:59N 55°35' E 021°05'3 6.4
2017-Aug-11 06:30N 55°34' E 021°00'5 8.3
2017-Aug-11 05:55N 55°32' E 020°52'4 8.2
2017-Aug-11 05:28N 55°30' E 020°46'4 8.0
2017-Aug-11 05:00N 55°29' E 020°40'3 1.9
2017-Aug-11 03:14N 55°32' E 020°39'0 0.5
2017-Aug-11 03:00N 55°32' E 020°39'0 0.4
2017-Aug-11 02:17N 55°33' E 020°39'0 0.5
2017-Aug-11 02:00N 55°33' E 020°39'0 0.5
2017-Aug-11 01:30N 55°33' E 020°38'0 0.5
2017-Aug-11 01:00N 55°33' E 020°38'0 0.4
2017-Aug-11 00:30N 55°33' E 020°38'0 0.4
2017-Aug-11 00:00N 55°34' E 020°38'0 0.4
2017-Aug-10 23:01N 55°34' E 020°38'0 0.0
2017-Aug-10 23:00N 55°34' E 020°38'0 0.3
2017-Aug-10 22:30N 55°34' E 020°38'0 0.3
2017-Aug-10 22:00N 55°34' E 020°38'0 0.3
2017-Aug-10 21:29N 55°34' E 020°38'0 0.3
2017-Aug-10 21:00N 55°35' E 020°38'0 0.3
2017-Aug-10 20:30N 55°35' E 020°38'0 0.3
2017-Aug-10 20:00N 55°35' E 020°38'0 0.4
2017-Aug-10 19:30N 55°35' E 020°38'0 0.4
2017-Aug-10 19:00N 55°35' E 020°38'0 0.4
2017-Aug-10 18:30N 55°35' E 020°38'0 0.5
2017-Aug-10 18:00N 55°36' E 020°39'0 0.6
2017-Aug-10 17:30N 55°36' E 020°39'0 0.6
2017-Aug-10 17:00N 55°36' E 020°39'2 3.4
2017-Aug-10 16:30N 55°37' E 020°42'1 2.2
2017-Aug-10 16:00N 55°38' E 020°42'1 3.0
2017-Aug-10 15:30N 55°39' E 020°42'4 8.4
2017-Aug-10 15:00N 55°40' E 020°34'14 8.2
2017-Aug-10 13:20N 55°43' E 020°11'4 3.2
2017-Aug-10 12:13N 55°46' E 020°14'2 8.6
2017-Aug-10 12:00N 55°47' E 020°17'4 8.6
2017-Aug-10 11:30N 55°48' E 020°25'15 5.0
2017-Aug-10 08:29N 55°53' E 020°50'3 5.9
2017-Aug-10 08:00N 55°51' E 020°53'4 8.5
2017-Aug-10 07:30N 55°48' E 020°58'4 8.7
2017-Aug-10 07:00N 55°45' E 021°03'  
Track history (hours):
 
Tides and Currents Weather Stations Pressure Air Temp Water Temp Dewpoint Dewpoint Depression Visibility Wind Speed Wind Dir Waves Ship Positions

Oceanographic research ship Darius (Lithuania)

Detailed information on ship capabilities available from University of Delaware's Ocean Information Center.

Last reported at 2017-Aug-11 06:59 UTC. Time now 2017-Oct-19 16:36 UTC.
Position N 55°35' E 021°05'.
Warning: this ship's position is months out of date.

Length 23 m.

Type: Fishing. MMSI: 277176000.

Date/timePositionNaut miles runAvg speedWind from/ knotsBaromVisibWave heightAir tempDewpointWater temp
2017-Aug-11 06:59N 55°35' E 021°05'3 6.4
2017-Aug-11 06:30N 55°34' E 021°00'5 8.3
2017-Aug-11 05:55N 55°32' E 020°52'4 8.2
2017-Aug-11 05:28N 55°30' E 020°46'4 8.0
2017-Aug-11 05:00N 55°29' E 020°40'3 1.9
2017-Aug-11 03:14N 55°32' E 020°39'0 0.5
2017-Aug-11 03:00N 55°32' E 020°39'0 0.4
2017-Aug-11 02:17N 55°33' E 020°39'0 0.5
2017-Aug-11 02:00N 55°33' E 020°39'0 0.5
2017-Aug-11 01:30N 55°33' E 020°38'0 0.5
2017-Aug-11 01:00N 55°33' E 020°38'0 0.4
2017-Aug-11 00:30N 55°33' E 020°38'0 0.4
2017-Aug-11 00:00N 55°34' E 020°38'0 0.4
2017-Aug-10 23:01N 55°34' E 020°38'0 0.0
2017-Aug-10 23:00N 55°34' E 020°38'0 0.3
2017-Aug-10 22:30N 55°34' E 020°38'0 0.3
2017-Aug-10 22:00N 55°34' E 020°38'0 0.3
2017-Aug-10 21:29N 55°34' E 020°38'0 0.3
2017-Aug-10 21:00N 55°35' E 020°38'0 0.3
2017-Aug-10 20:30N 55°35' E 020°38'0 0.3
2017-Aug-10 20:00N 55°35' E 020°38'0 0.4
2017-Aug-10 19:30N 55°35' E 020°38'0 0.4
2017-Aug-10 19:00N 55°35' E 020°38'0 0.4
2017-Aug-10 18:30N 55°35' E 020°38'0 0.5
2017-Aug-10 18:00N 55°36' E 020°39'0 0.6
2017-Aug-10 17:30N 55°36' E 020°39'0 0.6
2017-Aug-10 17:00N 55°36' E 020°39'2 3.4
2017-Aug-10 16:30N 55°37' E 020°42'1 2.2
2017-Aug-10 16:00N 55°38' E 020°42'1 3.0
2017-Aug-10 15:30N 55°39' E 020°42'4 8.4
2017-Aug-10 15:00N 55°40' E 020°34'14 8.2
2017-Aug-10 13:20N 55°43' E 020°11'4 3.2
2017-Aug-10 12:13N 55°46' E 020°14'2 8.6
2017-Aug-10 12:00N 55°47' E 020°17'4 8.6
2017-Aug-10 11:30N 55°48' E 020°25'15 5.0
2017-Aug-10 08:29N 55°53' E 020°50'3 5.9
2017-Aug-10 08:00N 55°51' E 020°53'4 8.5
2017-Aug-10 07:30N 55°48' E 020°58'4 8.7
2017-Aug-10 07:00N 55°45' E 021°03'  

Dump ship's entire track history